Time;durP1;ratioP1;P1;durP2;ratioP2;P2;SDS_P1;SDS_P2;PMS_P1;PMS_P2;Temp;Humidity;BMP_temperature;BMP_pressure;BME280_temperature;BME280_humidity;BME280_pressure;Samples;Min_cycle;Max_cycle;Signal;HPM_P1;HPM_P2
2022/05/27 00:00:10;;;;;;;1.02;0.57;;;18.00;72.20;18.20;100633.00;;;;4953370;28;87652;-67
2022/05/27 00:02:36;;;;;;;0.50;0.45;;;18.00;72.10;18.20;100631.00;;;;4955850;28;99883;-67
2022/05/27 00:05:18;;;;;;;0.50;0.50;;;18.00;72.20;18.20;100625.00;;;;4956187;28;108877;-68
2022/05/27 00:07:44;;;;;;;2.35;1.00;;;18.00;72.20;18.20;100629.00;;;;4956465;28;88160;-67
2022/05/27 00:10:13;;;;;;;0.70;0.50;;;18.00;72.20;18.20;100624.00;;;;4955894;28;117229;-67
2022/05/27 00:12:39;;;;;;;0.52;0.52;;;18.00;72.20;18.20;100614.00;;;;4956531;28;86995;-67
2022/05/27 00:15:06;;;;;;;1.50;1.10;;;18.00;72.20;18.20;100610.00;;;;4955698;28;109491;-68
2022/05/27 00:17:32;;;;;;;3.00;0.77;;;18.00;72.30;18.20;100604.00;;;;4955775;28;88903;-68
2022/05/27 00:19:58;;;;;;;0.60;0.43;;;18.00;72.30;18.20;100610.00;;;;4955508;28;88865;-66
2022/05/27 00:22:23;;;;;;;0.70;0.38;;;18.00;72.20;18.20;100591.00;;;;4955128;28;109765;-67
2022/05/27 00:24:49;;;;;;;0.40;0.40;;;18.00;72.30;18.20;100590.00;;;;4956243;28;87845;-67
2022/05/27 00:27:15;;;;;;;1.38;0.82;;;18.00;72.30;18.20;100587.00;;;;4936222;28;118325;-67
2022/05/27 00:29:46;;;;;;;2.83;0.77;;;18.00;72.30;18.20;100586.00;;;;4955494;28;115918;-66
2022/05/27 00:32:12;;;;;;;2.20;0.82;;;18.10;72.40;18.20;100581.00;;;;4954817;28;109943;-66
2022/05/27 00:34:38;;;;;;;0.80;0.50;;;18.00;72.40;18.20;100577.00;;;;4955420;28;108967;-66
2022/05/27 00:37:05;;;;;;;0.70;0.70;;;18.10;72.50;18.20;100570.00;;;;4953960;28;117127;-67
2022/05/27 00:39:31;;;;;;;2.63;0.80;;;18.10;72.40;18.30;100573.00;;;;4956137;28;87873;-66
2022/05/27 00:41:58;;;;;;;1.40;0.65;;;18.10;72.50;18.30;100572.00;;;;4955826;28;90378;-68
2022/05/27 00:44:23;;;;;;;0.30;0.30;;;18.10;72.40;18.30;100572.00;;;;4954563;28;88933;-66
2022/05/27 00:46:49;;;;;;;0.70;0.30;;;18.10;72.50;18.30;100560.00;;;;4968997;28;89181;-66
2022/05/27 00:49:22;;;;;;;0.80;0.65;;;18.10;72.60;18.30;100557.00;;;;4958812;28;87747;-66
2022/05/27 00:52:10;;;;;;;1.02;0.47;;;18.10;72.60;18.30;100567.00;;;;4956187;28;101691;-66
2022/05/27 00:54:40;;;;;;;3.20;0.55;;;18.10;72.60;18.30;100571.00;;;;4937146;28;87553;-66
2022/05/27 00:57:36;;;;;;;0.40;0.40;;;18.10;72.60;18.30;100567.00;;;;4969417;28;117574;-66
2022/05/27 01:00:14;;;;;;;0.50;0.45;;;18.10;72.60;18.30;100565.00;;;;4927617;28;88133;-68
2022/05/27 01:02:40;;;;;;;0.45;0.45;;;18.10;72.60;18.30;100552.00;;;;4937586;28;86905;-66
2022/05/27 01:05:10;;;;;;;1.35;0.80;;;18.10;72.60;18.30;100562.00;;;;4954871;28;109821;-67
2022/05/27 01:07:36;;;;;;;0.63;0.55;;;18.20;72.60;18.30;100555.00;;;;4937233;28;87956;-66
2022/05/27 01:10:05;;;;;;;0.63;0.50;;;18.20;72.60;18.40;100560.00;;;;4954585;28;109963;-66
2022/05/27 01:13:04;;;;;;;0.50;0.50;;;18.20;72.60;18.30;100549.00;;;;4955537;28;87803;-66
2022/05/27 01:16:04;;;;;;;0.68;0.30;;;18.20;72.60;18.30;100554.00;;;;4933757;28;99369;-67
2022/05/27 01:22:49;;;;;;;4.90;0.50;;;18.20;72.60;18.30;100526.00;;;;4965162;28;88033;-67
2022/05/27 01:25:46;;;;;;;1.17;0.70;;;18.20;72.70;18.40;100529.00;;;;4911482;28;88188;-68
2022/05/27 01:29:11;;;;;;;0.73;0.43;;;18.20;72.50;18.40;100508.00;;;;4953959;28;88101;-66
2022/05/27 01:31:46;;;;;;;0.70;0.40;;;18.20;72.50;18.40;100521.00;;;;4957373;28;87321;-67
2022/05/27 01:34:47;;;;;;;1.08;0.57;;;18.20;72.40;18.30;100526.00;;;;4940132;28;88048;-67
2022/05/27 01:37:51;;;;;;;1.10;0.50;;;18.20;72.40;18.40;100526.00;;;;4958127;28;103652;-66
2022/05/27 01:40:32;;;;;;;0.30;0.30;;;18.20;72.40;18.40;100522.00;;;;4940531;28;88757;-67
2022/05/27 01:43:12;;;;;;;0.82;0.47;;;18.20;72.40;18.40;100531.00;;;;4939528;28;108298;-67
2022/05/27 01:45:59;;;;;;;0.80;0.80;;;18.20;72.40;18.40;100532.00;;;;4975162;28;111909;-66
2022/05/27 01:48:32;;;;;;;2.17;0.60;;;18.30;72.60;18.40;100524.00;;;;4954179;28;88312;-67
2022/05/27 01:51:08;;;;;;;0.88;0.45;;;18.30;73.20;18.40;100523.00;;;;4938610;28;108159;-67
2022/05/27 01:54:00;;;;;;;0.63;0.60;;;18.10;72.40;18.40;100520.00;;;;4946205;28;87906;-67
2022/05/27 01:57:06;;;;;;;3.03;0.95;;;18.30;72.60;18.40;100510.00;;;;4972607;28;102186;-66
2022/05/27 02:00:16;;;;;;;0.82;0.70;;;18.20;72.50;18.40;100513.00;;;;4932139;28;87184;-67
2022/05/27 02:02:57;;;;;;;0.65;0.47;;;18.20;72.60;18.40;100505.00;;;;4939709;28;87764;-67
2022/05/27 02:05:39;;;;;;;2.38;0.77;;;18.20;72.80;18.40;100506.00;;;;4972541;28;107734;-66
2022/05/27 02:08:16;;;;;;;0.95;0.70;;;18.20;72.80;18.40;100501.00;;;;4939194;28;89235;-68
2022/05/27 02:10:54;;;;;;;0.30;0.30;;;18.20;72.90;18.40;100503.00;;;;4973332;28;87733;-66
2022/05/27 02:14:16;;;;;;;1.38;0.75;;;18.20;73.00;18.30;100506.00;;;;4958364;28;87674;-67
2022/05/27 02:16:54;;;;;;;1.27;0.73;;;18.20;73.00;18.30;100502.00;;;;4914866;28;88140;-66
2022/05/27 02:19:42;;;;;;;3.30;0.60;;;18.20;73.10;18.30;100513.00;;;;4910998;28;105450;-67
2022/05/27 02:22:18;;;;;;;0.57;0.50;;;18.20;73.30;18.40;100509.00;;;;4910997;28;92836;-67
2022/05/27 02:25:05;;;;;;;0.80;0.30;;;18.20;73.20;18.40;100496.00;;;;4953850;28;87721;-67
2022/05/27 02:27:47;;;;;;;0.55;0.50;;;18.20;73.30;18.40;100489.00;;;;4958418;28;87006;-66
2022/05/27 02:30:15;;;;;;;0.75;0.50;;;18.30;73.30;18.40;100490.00;;;;4971420;28;87973;-68
2022/05/27 02:35:07;;;;;;;0.75;0.75;;;18.30;73.20;18.50;100488.00;;;;4972415;28;87928;-66
2022/05/27 02:35:40;;;;;;;0.60;0.52;;;18.30;73.20;18.50;100480.00;;;;4925819;28;88842;-66
2022/05/27 02:38:06;;;;;;;0.60;0.50;;;18.30;73.10;18.50;100484.00;;;;4971250;28;88445;-66
2022/05/27 02:40:58;;;;;;;0.55;0.55;;;18.40;73.20;18.50;100480.00;;;;4956580;28;109492;-66
2022/05/27 02:44:07;;;;;;;1.60;0.82;;;18.40;73.10;18.50;100479.00;;;;4970647;28;87935;-66
2022/05/27 02:46:37;;;;;;;0.52;0.52;;;18.40;73.10;18.50;100488.00;;;;4966034;28;87722;-66
2022/05/27 02:49:15;;;;;;;2.05;0.43;;;18.40;73.10;18.50;100485.00;;;;4964852;28;89111;-66
2022/05/27 02:51:59;;;;;;;3.05;0.68;;;18.40;73.20;18.50;100481.00;;;;4957000;28;87816;-66
2022/05/27 02:54:56;;;;;;;0.80;0.55;;;18.40;73.20;18.50;100496.00;;;;4955633;28;110036;-67
2022/05/27 02:57:46;;;;;;;1.85;0.30;;;18.40;73.40;18.50;100500.00;;;;4956520;28;87725;-67
2022/05/27 03:00:26;;;;;;;0.68;0.68;;;18.40;73.30;18.50;100507.00;;;;4934742;28;87869;-66
2022/05/27 03:02:53;;;;;;;1.50;0.80;;;18.40;73.40;18.50;100505.00;;;;4955835;28;88691;-66
2022/05/27 03:05:23;;;;;;;1.55;0.63;;;18.40;73.60;18.50;100506.00;;;;4956570;28;87856;-66
2022/05/27 03:08:15;;;;;;;0.68;0.50;;;18.40;73.70;18.50;100517.00;;;;4937293;28;102540;-66
2022/05/27 03:10:58;;;;;;;0.80;0.63;;;18.40;73.50;18.50;100514.00;;;;4951066;28;88099;-66
2022/05/27 03:13:51;;;;;;;0.75;0.70;;;18.40;73.70;18.50;100526.00;;;;4963622;28;88075;-68
2022/05/27 03:16:35;;;;;;;3.45;0.95;;;18.40;74.80;18.50;100534.00;;;;4937571;28;93986;-67
2022/05/27 03:19:36;;;;;;;1.45;1.13;;;18.30;75.30;18.40;100531.00;;;;4953715;28;87853;-66
2022/05/27 03:22:20;;;;;;;1.33;0.88;;;18.20;77.00;18.20;100536.00;;;;4956705;28;87836;-67
2022/05/27 03:25:27;;;;;;;1.70;1.00;;;18.10;78.80;18.10;100548.00;;;;4916970;28;1112947;-66
2022/05/27 03:28:21;;;;;;;1.23;1.05;;;18.00;79.90;17.90;100553.00;;;;4970911;28;87927;-66
2022/05/27 03:31:15;;;;;;;1.40;1.23;;;17.80;82.40;17.70;100564.00;;;;4971117;28;88792;-66
2022/05/27 03:34:01;;;;;;;1.98;0.93;;;17.70;85.30;17.50;100572.00;;;;4937155;28;102203;-66
2022/05/27 03:36:34;;;;;;;0.73;0.68;;;17.50;87.30;17.30;100570.00;;;;4956577;28;88226;-66
2022/05/27 03:39:13;;;;;;;1.23;1.15;;;17.30;90.30;17.10;100573.00;;;;4956784;28;87998;-67
2022/05/27 03:41:55;;;;;;;1.58;1.15;;;17.10;93.90;16.70;100570.00;;;;4937849;28;87786;-69
2022/05/27 03:44:26;;;;;;;0.93;0.80;;;16.80;96.30;16.40;100565.00;;;;4936318;28;106582;-74
2022/05/27 03:46:54;;;;;;;7.45;0.80;;;16.50;98.40;16.10;100561.00;;;;4970315;28;87711;-72
2022/05/27 03:49:20;;;;;;;0.85;0.85;;;16.20;99.60;15.90;100568.00;;;;4948111;28;87174;-74
2022/05/27 03:52:07;;;;;;;3.08;1.20;;;16.00;99.90;15.60;100569.00;;;;4955818;28;88140;-77
2022/05/27 03:54:34;;;;;;;1.13;1.02;;;15.70;99.90;15.50;100567.00;;;;4952500;28;89532;-73
2022/05/27 03:57:00;;;;;;;1.52;1.13;;;15.50;99.90;15.30;100569.00;;;;4955436;28;88758;-73
2022/05/27 03:59:26;;;;;;;1.10;1.00;;;15.30;99.90;15.10;100577.00;;;;4955535;28;87776;-70
2022/05/27 04:01:55;;;;;;;0.77;0.77;;;15.20;99.90;15.00;100560.00;;;;4956169;28;88054;-70
2022/05/27 04:04:26;;;;;;;1.40;0.97;;;15.00;99.90;14.90;100552.00;;;;4956128;28;88317;-72
2022/05/27 04:06:52;;;;;;;2.90;1.48;;;14.90;99.90;14.80;100555.00;;;;4955674;28;88829;-72
2022/05/27 04:09:27;;;;;;;0.70;0.70;;;14.80;99.90;14.70;100544.00;;;;4955588;28;87589;-70
2022/05/27 04:11:54;;;;;;;0.55;0.55;;;14.70;99.90;14.70;100550.00;;;;4971332;28;87875;-70
2022/05/27 04:14:20;;;;;;;0.90;0.80;;;14.70;99.90;14.60;100549.00;;;;4954823;28;87736;-69
2022/05/27 04:16:48;;;;;;;2.97;1.27;;;14.60;99.90;14.60;100554.00;;;;4954900;28;89863;-69
2022/05/27 04:19:15;;;;;;;1.33;0.85;;;14.50;99.90;14.60;100549.00;;;;4955197;28;87760;-68
2022/05/27 04:21:41;;;;;;;2.60;0.88;;;14.50;99.90;14.50;100544.00;;;;4954722;28;89782;-69
2022/05/27 04:24:07;;;;;;;2.60;1.10;;;14.50;99.90;14.50;100538.00;;;;4955658;28;88235;-69
2022/05/27 04:26:34;;;;;;;0.70;0.70;;;14.40;99.90;14.50;100546.00;;;;4954781;28;87888;-69
2022/05/27 04:29:00;;;;;;;0.80;0.80;;;14.40;99.90;14.50;100535.00;;;;4969973;28;100415;-69
2022/05/27 04:31:25;;;;;;;0.85;0.85;;;14.40;99.90;14.40;100542.00;;;;4955486;28;88429;-70
2022/05/27 04:33:55;;;;;;;0.57;0.50;;;14.40;99.90;14.40;100532.00;;;;4954389;28;101396;-70
2022/05/27 04:36:20;;;;;;;1.33;1.10;;;14.40;99.90;14.40;100534.00;;;;4936753;28;87790;-69
2022/05/27 04:38:46;;;;;;;1.23;0.87;;;14.40;99.90;14.40;100534.00;;;;4954945;28;109290;-67
2022/05/27 04:41:12;;;;;;;1.47;1.00;;;14.40;99.90;14.40;100520.00;;;;4970155;28;87832;-69
2022/05/27 04:43:37;;;;;;;1.90;1.07;;;14.40;99.90;14.40;100526.00;;;;4955404;28;91713;-68
2022/05/27 04:46:04;;;;;;;1.20;0.93;;;14.40;99.90;14.40;100524.00;;;;4941301;28;111750;-69
2022/05/27 04:48:29;;;;;;;2.13;1.43;;;14.40;99.90;14.50;100532.00;;;;4950248;28;87804;-69
2022/05/27 04:50:55;;;;;;;1.87;0.83;;;14.40;99.90;14.50;100531.00;;;;4954606;28;109226;-68
2022/05/27 04:53:21;;;;;;;3.20;1.77;;;14.40;99.90;14.50;100519.00;;;;4954763;28;118481;-67
2022/05/27 04:55:46;;;;;;;2.23;1.53;;;14.40;99.90;14.50;100533.00;;;;4935593;28;118259;-67
2022/05/27 04:58:18;;;;;;;1.40;1.30;;;14.40;99.90;14.50;100523.00;;;;4954460;28;109490;-68
2022/05/27 05:00:47;;;;;;;1.53;1.43;;;14.40;99.90;14.40;100521.00;;;;4950070;28;109193;-68
2022/05/27 05:03:13;;;;;;;2.97;1.20;;;14.40;99.90;14.40;100518.00;;;;4978713;28;87248;-67
2022/05/27 05:05:40;;;;;;;1.37;1.27;;;14.30;99.90;14.40;100521.00;;;;4970272;28;96641;-66
2022/05/27 05:08:29;;;;;;;1.27;1.00;;;14.30;99.90;14.30;100514.00;;;;4964354;28;88165;-66
2022/05/27 05:10:55;;;;;;;0.80;0.80;;;14.30;99.90;14.30;100514.00;;;;4978457;28;88799;-67
2022/05/27 05:13:20;;;;;;;0.93;0.77;;;14.20;99.90;14.30;100517.00;;;;4961744;28;88653;-67
2022/05/27 05:15:46;;;;;;;1.47;0.80;;;14.20;99.90;14.30;100516.00;;;;4969850;28;117338;-67
2022/05/27 05:18:12;;;;;;;1.20;1.10;;;14.20;99.90;14.30;100523.00;;;;4965932;28;111334;-67
2022/05/27 05:20:38;;;;;;;0.90;0.73;;;14.20;99.90;14.20;100505.00;;;;4963324;28;109045;-66
2022/05/27 05:23:03;;;;;;;0.80;0.60;;;14.20;99.90;14.20;100512.00;;;;4965747;28;118040;-66
2022/05/27 05:25:29;;;;;;;1.07;0.97;;;14.20;99.90;14.20;100505.00;;;;4971027;28;88129;-65
2022/05/27 05:27:56;;;;;;;0.60;0.60;;;14.20;99.90;14.20;100505.00;;;;4970026;28;87155;-65
2022/05/27 05:30:25;;;;;;;0.70;0.70;;;14.10;99.90;14.20;100509.00;;;;4967758;28;87876;-66
2022/05/27 05:32:51;;;;;;;1.63;0.83;;;14.10;99.90;14.20;100502.00;;;;4960157;28;88036;-65
2022/05/27 05:35:17;;;;;;;0.90;0.83;;;14.10;99.90;14.20;100504.00;;;;4969576;28;104129;-65
2022/05/27 05:37:43;;;;;;;2.10;1.40;;;14.10;99.90;14.20;100502.00;;;;4969317;28;103781;-66
2022/05/27 05:40:11;;;;;;;1.03;0.93;;;14.10;99.90;14.20;100505.00;;;;4964642;28;109111;-65
2022/05/27 05:42:38;;;;;;;1.30;1.20;;;14.20;99.90;14.20;100512.00;;;;4949081;28;88245;-65
2022/05/27 05:45:05;;;;;;;2.80;1.20;;;14.10;99.90;14.20;100515.00;;;;4961700;28;88532;-66
2022/05/27 05:47:31;;;;;;;1.97;0.73;;;14.10;99.90;14.20;100519.00;;;;4946075;28;88071;-66
2022/05/27 05:49:56;;;;;;;0.70;0.70;;;14.10;99.90;14.20;100505.00;;;;4965379;28;108210;-65
2022/05/27 05:52:22;;;;;;;2.30;1.40;;;14.10;99.90;14.20;100519.00;;;;4962212;28;116212;-64
2022/05/27 05:54:48;;;;;;;0.83;0.83;;;14.10;99.90;14.20;100507.00;;;;4964230;28;116698;-64
2022/05/27 05:57:14;;;;;;;1.10;1.00;;;14.10;99.90;14.20;100503.00;;;;4965438;28;110942;-64
2022/05/27 05:59:39;;;;;;;0.93;0.93;;;14.10;99.90;14.30;100502.00;;;;4966545;28;106847;-63
2022/05/27 06:02:07;;;;;;;1.53;1.43;;;14.20;99.90;14.30;100506.00;;;;4971170;28;88272;-64
2022/05/27 06:04:33;;;;;;;1.60;1.03;;;14.20;99.90;14.30;100509.00;;;;4962263;28;88910;-64
2022/05/27 06:06:58;;;;;;;4.07;1.73;;;14.20;99.90;14.30;100490.00;;;;4965166;28;108292;-63
2022/05/27 06:09:27;;;;;;;2.80;1.73;;;14.20;99.90;14.30;100510.00;;;;4962064;28;109215;-64
2022/05/27 06:11:55;;;;;;;1.63;1.43;;;14.20;99.90;14.30;100495.00;;;;4968794;28;111140;-63
2022/05/27 06:14:21;;;;;;;1.47;1.37;;;14.30;99.90;14.40;100493.00;;;;4963605;28;87925;-65
2022/05/27 06:16:47;;;;;;;2.40;1.40;;;14.30;99.90;14.40;100502.00;;;;4946002;28;93192;-64
2022/05/27 06:19:16;;;;;;;1.43;1.20;;;14.30;99.90;14.40;100502.00;;;;4967373;28;96037;-65
2022/05/27 06:21:43;;;;;;;1.67;1.53;;;14.30;99.90;14.40;100487.00;;;;4968798;28;118905;-65
2022/05/27 06:24:10;;;;;;;1.53;1.33;;;14.30;99.90;14.50;100490.00;;;;4967474;28;88915;-65
2022/05/27 06:26:38;;;;;;;1.87;1.57;;;14.40;99.90;14.50;100491.00;;;;4968164;28;87688;-65
2022/05/27 06:34:39;;;;;;;2.37;1.63;;;14.40;99.90;14.50;100491.00;;;;4965507;28;87905;-65
2022/05/27 06:37:11;;;;;;;1.50;1.40;;;14.40;99.90;14.50;100504.00;;;;4967013;28;109869;-65
2022/05/27 06:39:38;;;;;;;1.33;1.23;;;14.40;99.90;14.50;100498.00;;;;4947285;28;87963;-65
2022/05/27 06:42:14;;;;;;;2.20;1.60;;;14.40;99.90;14.50;100502.00;;;;4955082;28;88272;-65
2022/05/27 06:44:41;;;;;;;1.50;1.40;;;14.40;99.90;14.60;100511.00;;;;4966054;28;99025;-65
2022/05/27 06:47:09;;;;;;;2.27;1.60;;;14.50;99.90;14.60;100510.00;;;;4967508;28;87785;-65
2022/05/27 06:49:36;;;;;;;1.40;1.30;;;14.40;99.90;14.60;100517.00;;;;4966561;28;89047;-65
2022/05/27 06:52:04;;;;;;;1.53;1.40;;;14.50;99.90;14.60;100565.00;;;;4969879;28;91043;-65
2022/05/27 06:54:30;;;;;;;1.60;1.17;;;14.50;99.90;14.60;100591.00;;;;4973494;28;87904;-64
2022/05/27 06:56:56;;;;;;;0.83;0.80;;;14.50;99.90;14.40;100569.00;;;;4966714;28;88081;-65
2022/05/27 06:59:24;;;;;;;0.60;0.60;;;14.40;99.90;14.00;100570.00;;;;4960787;28;108478;-65
2022/05/27 07:01:50;;;;;;;1.07;0.47;;;14.10;99.90;13.70;100590.00;;;;4969435;28;95747;-65
2022/05/27 07:04:19;;;;;;;0.67;0.50;;;13.80;99.90;13.40;100587.00;;;;4973425;28;88042;-66
2022/05/27 07:06:47;;;;;;;1.03;0.60;;;13.60;99.90;13.20;100579.00;;;;4965931;28;86958;-66
2022/05/27 07:09:17;;;;;;;0.40;0.40;;;13.30;99.90;13.10;100581.00;;;;4968268;28;87620;-66
2022/05/27 07:11:45;;;;;;;0.67;0.50;;;13.20;99.90;13.00;100591.00;;;;4972931;28;88251;-66
2022/05/27 07:14:21;;;;;;;0.47;0.47;;;13.10;99.90;12.90;100596.00;;;;4966484;28;92594;-67
2022/05/27 07:16:48;;;;;;;0.40;0.40;;;13.00;99.90;12.90;100588.00;;;;4972333;28;92849;-68
2022/05/27 07:19:14;;;;;;;0.93;0.57;;;12.90;99.90;12.80;100593.00;;;;4971370;28;87757;-68
2022/05/27 07:21:43;;;;;;;1.37;0.90;;;12.80;99.90;12.80;100586.00;;;;4970201;28;116934;-68
2022/05/27 07:24:13;;;;;;;0.50;0.50;;;12.80;99.90;12.80;100568.00;;;;4972618;28;96966;-67
2022/05/27 07:26:41;;;;;;;2.03;0.70;;;12.70;99.90;12.70;100575.00;;;;4972752;28;87911;-67
2022/05/27 07:29:19;;;;;;;3.77;0.90;;;12.70;99.90;12.70;100593.00;;;;4956472;28;97669;-67
2022/05/27 07:31:45;;;;;;;0.70;0.63;;;12.60;99.90;12.70;100579.00;;;;4970371;28;87903;-67
2022/05/27 07:34:12;;;;;;;3.03;0.87;;;12.60;99.90;12.60;100582.00;;;;4964411;28;88643;-67
2022/05/27 07:36:37;;;;;;;0.90;0.60;;;12.60;99.90;12.60;100580.00;;;;4965703;28;87679;-67
2022/05/27 07:39:09;;;;;;;1.03;0.70;;;12.50;99.90;12.60;100582.00;;;;4970555;28;88451;-67
2022/05/27 07:41:36;;;;;;;0.83;0.47;;;12.50;99.90;12.60;100576.00;;;;4967923;28;118071;-68
2022/05/27 07:44:01;;;;;;;0.43;0.43;;;12.50;99.90;12.50;100576.00;;;;4967819;28;88695;-67
2022/05/27 07:46:30;;;;;;;0.60;0.60;;;12.50;99.90;12.50;100574.00;;;;4968993;28;87778;-66
2022/05/27 07:48:59;;;;;;;2.87;0.40;;;12.50;99.90;12.40;100572.00;;;;4966347;28;87721;-68
2022/05/27 07:51:28;;;;;;;0.83;0.70;;;12.40;99.90;12.40;100572.00;;;;4967328;28;88020;-66
2022/05/27 07:53:54;;;;;;;2.23;0.77;;;12.40;99.90;12.40;100566.00;;;;4967127;28;88202;-65
2022/05/27 07:56:19;;;;;;;1.00;0.63;;;12.40;99.90;12.40;100569.00;;;;4964554;28;109857;-66
2022/05/27 07:58:46;;;;;;;0.60;0.60;;;12.40;99.90;12.40;100569.00;;;;4970236;28;108558;-67
2022/05/27 08:01:11;;;;;;;2.30;0.40;;;12.30;99.90;12.40;100561.00;;;;4971889;28;89094;-66
2022/05/27 08:03:39;;;;;;;3.40;1.60;;;12.40;99.90;12.40;100576.00;;;;4964662;28;116434;-66
2022/05/27 08:06:17;;;;;;;2.47;0.93;;;12.40;99.90;12.40;100583.00;;;;4971806;28;87822;-66
2022/05/27 08:08:55;;;;;;;0.53;0.53;;;12.40;99.90;12.50;100578.00;;;;4965883;28;87835;-67
2022/05/27 08:11:20;;;;;;;2.73;0.93;;;12.40;99.90;12.60;100580.00;;;;4963880;28;116920;-66
2022/05/27 08:13:46;;;;;;;0.87;0.87;;;12.50;99.90;12.60;100590.00;;;;4965815;28;117402;-66
2022/05/27 08:16:18;;;;;;;1.40;1.10;;;12.50;99.90;12.60;100573.00;;;;4968920;28;109707;-66
2022/05/27 08:18:43;;;;;;;1.30;0.63;;;12.60;99.90;12.70;100556.00;;;;4970378;28;106416;-66
2022/05/27 08:21:09;;;;;;;1.13;1.03;;;12.60;99.90;12.70;100567.00;;;;4947777;28;116157;-66
2022/05/27 08:23:35;;;;;;;1.27;0.83;;;12.60;99.90;12.70;100564.00;;;;4970481;28;116547;-66
2022/05/27 08:26:01;;;;;;;0.97;0.97;;;12.70;99.90;12.80;100577.00;;;;4971323;28;111194;-66
2022/05/27 08:28:27;;;;;;;1.37;1.27;;;12.70;99.90;12.80;100571.00;;;;4967463;28;89104;-66
2022/05/27 08:30:58;;;;;;;1.10;1.00;;;12.70;99.90;12.90;100563.00;;;;4964249;28;89132;-65
2022/05/27 08:39:23;;;;;;;1.67;1.07;;;12.90;99.90;13.10;100552.00;;;;4940522;28;88316;-64
2022/05/27 08:42:26;;;;;;;4.37;1.10;;;13.00;99.90;13.20;100550.00;;;;4970664;28;104237;-65
2022/05/27 08:45:36;;;;;;;1.87;1.67;;;13.10;99.90;13.30;100563.00;;;;4952043;28;87944;-64
2022/05/27 08:48:14;;;;;;;2.07;0.70;;;13.10;99.90;13.40;100543.00;;;;4938068;28;87275;-65
2022/05/27 08:50:53;;;;;;;2.53;1.07;;;13.30;99.90;13.60;100545.00;;;;4950389;28;87839;-64
2022/05/27 08:53:40;;;;;;;1.10;1.00;;;13.40;99.90;13.70;100545.00;;;;4968520;28;106923;-64
2022/05/27 08:59:34;;;;;;;2.47;1.47;;;13.60;99.90;14.00;100560.00;;;;4949413;28;87805;-63
2022/05/27 09:02:27;;;;;;;4.83;0.90;;;13.80;99.90;14.30;100562.00;;;;4952049;28;88178;-62
2022/05/27 09:05:18;;;;;;;1.30;1.03;;;14.00;99.90;14.60;100563.00;;;;4971481;28;89188;-62
2022/05/27 09:08:06;;;;;;;2.60;1.30;;;14.30;99.90;14.80;100563.00;;;;4943643;28;108017;-63
2022/05/27 09:10:51;;;;;;;1.30;1.17;;;14.60;99.90;15.00;100572.00;;;;4967032;28;103149;-62
2022/05/27 09:13:28;;;;;;;1.73;1.23;;;14.80;99.90;15.00;100574.00;;;;4960337;28;87941;-63
2022/05/27 09:16:30;;;;;;;2.63;1.13;;;14.90;99.90;15.00;100588.00;;;;4965280;28;87100;-64
2022/05/27 09:19:31;;;;;;;6.40;1.33;;;14.90;99.90;15.00;100561.00;;;;4964905;28;88141;-63
2022/05/27 09:22:30;;;;;;;0.93;0.90;;;14.90;99.90;14.90;100563.00;;;;4964871;28;87969;-63
2022/05/27 09:25:23;;;;;;;1.42;1.02;;;14.90;99.90;15.00;100568.00;;;;4959000;28;88998;-64
2022/05/27 09:28:35;;;;;;;1.20;1.10;;;14.90;99.90;15.20;100556.00;;;;4947379;28;104722;-62
2022/05/27 09:31:07;;;;;;;4.50;1.58;;;15.00;99.90;15.30;100560.00;;;;4968523;28;87986;-63
2022/05/27 09:33:35;;;;;;;1.33;1.15;;;15.20;99.90;15.50;100548.00;;;;4963452;28;88007;-63
2022/05/27 09:36:15;;;;;;;6.77;1.47;;;15.30;99.90;15.70;100561.00;;;;4944560;28;108396;-63
2022/05/27 09:38:58;;;;;;;1.50;1.13;;;15.50;99.90;15.90;100563.00;;;;4940936;28;102517;-63
2022/05/27 09:41:36;;;;;;;0.80;0.80;;;15.70;99.90;16.10;100558.00;;;;4950619;28;88155;-63
2022/05/27 09:44:35;;;;;;;2.03;1.77;;;15.90;99.90;16.30;100569.00;;;;4932858;28;87348;-64
2022/05/27 09:47:03;;;;;;;1.40;1.15;;;16.10;99.90;16.40;100567.00;;;;4940264;28;87743;-63
2022/05/27 09:49:30;;;;;;;3.10;1.52;;;16.20;99.90;16.50;100555.00;;;;4952082;28;89088;-63
2022/05/27 09:51:56;;;;;;;2.67;1.90;;;16.30;99.90;16.60;100562.00;;;;4968355;28;88964;-63
2022/05/27 09:54:36;;;;;;;1.75;1.50;;;16.40;99.90;16.70;100553.00;;;;4972331;28;87737;-63
2022/05/27 09:57:09;;;;;;;1.40;1.30;;;16.60;99.90;16.80;100541.00;;;;4978057;28;87826;-64
2022/05/27 09:59:39;;;;;;;3.00;1.25;;;16.70;99.90;17.00;100534.00;;;;4973755;28;102138;-63
2022/05/27 10:02:22;;;;;;;2.47;1.20;;;16.80;99.90;17.20;100540.00;;;;4973465;28;92830;-64
2022/05/27 10:05:03;;;;;;;4.57;1.58;;;17.10;99.90;17.40;100538.00;;;;4972433;28;87797;-64
2022/05/27 10:07:45;;;;;;;1.30;1.20;;;17.20;99.90;17.60;100534.00;;;;4968219;28;87719;-64
2022/05/27 10:10:40;;;;;;;1.83;1.27;;;17.40;99.90;17.80;100529.00;;;;4967689;28;87693;-64
2022/05/27 10:13:28;;;;;;;2.17;1.55;;;17.60;99.90;18.10;100523.00;;;;4973660;28;87982;-64
2022/05/27 10:16:11;;;;;;;1.73;1.63;;;17.90;99.90;18.60;100525.00;;;;4967236;28;87761;-64
2022/05/27 10:18:38;;;;;;;1.67;1.13;;;18.20;99.90;18.80;100520.00;;;;4971526;28;88762;-65
2022/05/27 10:21:19;;;;;;;3.30;1.48;;;18.40;99.90;18.80;100530.00;;;;4967668;28;88407;-64
2022/05/27 10:23:54;;;;;;;6.05;1.27;;;18.60;99.90;18.80;100524.00;;;;4974296;28;88572;-63
2022/05/27 10:26:33;;;;;;;1.27;1.10;;;18.60;99.90;18.80;100510.00;;;;4937849;28;87833;-63
2022/05/27 10:29:11;;;;;;;1.75;1.13;;;18.60;99.90;18.80;100528.00;;;;4968911;28;87824;-64
2022/05/27 10:31:51;;;;;;;0.98;0.90;;;18.60;99.90;18.90;100520.00;;;;4974062;28;88140;-64
2022/05/27 10:34:37;;;;;;;3.10;1.00;;;18.70;99.90;19.00;100525.00;;;;4968092;28;87947;-64
2022/05/27 10:37:18;;;;;;;1.77;0.95;;;18.80;99.90;19.20;100488.00;;;;4968205;28;87246;-63
2022/05/27 10:40:24;;;;;;;2.13;1.38;;;18.90;99.90;19.10;100515.00;;;;4948662;28;88158;-64
2022/05/27 10:43:34;;;;;;;1.60;1.42;;;18.90;99.90;18.90;100507.00;;;;4952735;28;111653;-64
2022/05/27 10:46:05;;;;;;;1.08;0.70;;;18.90;99.90;18.90;100522.00;;;;4966817;28;105686;-65
2022/05/27 10:49:15;;;;;;;0.65;0.65;;;18.70;99.90;18.90;100508.00;;;;4966668;28;87437;-64
2022/05/27 10:52:23;;;;;;;0.93;0.90;;;18.80;99.90;18.90;100505.00;;;;4963484;28;88265;-64
2022/05/27 10:55:12;;;;;;;0.95;0.88;;;18.70;99.90;19.00;100493.00;;;;4970729;28;89502;-63
2022/05/27 11:04:24;;;;;;;1.50;1.08;;;19.10;99.90;19.70;100510.00;;;;4965570;28;88021;-64
2022/05/27 11:07:08;;;;;;;1.95;1.00;;;19.30;99.90;20.00;100502.00;;;;4967768;28;107755;-65
2022/05/27 11:09:52;;;;;;;1.77;1.35;;;19.70;99.10;20.30;100502.00;;;;4953709;28;87859;-65
2022/05/27 11:16:06;;;;;;;5.10;1.15;;;20.10;97.60;20.30;100489.00;;;;4966352;28;88907;-64
2022/05/27 11:19:00;;;;;;;3.72;1.17;;;20.10;96.90;20.20;100486.00;;;;4952239;28;88010;-64
2022/05/27 11:22:04;;;;;;;3.65;1.10;;;20.00;97.10;20.20;100495.00;;;;4950337;28;106188;-64
2022/05/27 11:24:45;;;;;;;0.90;0.80;;;20.00;95.60;20.30;100476.00;;;;4954391;28;94566;-64
2022/05/27 11:27:38;;;;;;;1.70;1.15;;;20.00;95.40;20.60;100477.00;;;;4944275;28;88076;-64
2022/05/27 11:30:22;;;;;;;1.30;0.80;;;20.20;93.20;21.00;100476.00;;;;4953017;28;87978;-64
2022/05/27 11:33:25;;;;;;;1.00;0.70;;;20.50;93.80;21.50;100468.00;;;;4951765;28;88640;-63
2022/05/27 11:36:41;;;;;;;2.90;1.08;;;21.00;90.10;21.80;100476.00;;;;4946460;28;87266;-64
2022/05/27 11:39:35;;;;;;;1.55;0.82;;;21.40;84.30;21.90;100463.00;;;;4913034;28;87723;-64
2022/05/27 11:43:13;;;;;;;1.10;0.70;;;21.60;78.30;21.80;100466.00;;;;4909912;28;88052;-64
2022/05/27 11:45:56;;;;;;;1.70;0.75;;;21.50;76.00;21.70;100467.00;;;;4867370;28;88851;-65
2022/05/27 11:49:04;;;;;;;1.40;0.60;;;21.50;76.00;21.40;100467.00;;;;4866734;28;103824;-65
2022/05/27 11:51:37;;;;;;;0.80;0.80;;;21.30;74.20;21.20;100450.00;;;;4899423;28;88100;-64
2022/05/27 11:54:23;;;;;;;2.17;0.80;;;21.10;74.20;21.30;100456.00;;;;4929627;28;96343;-64